sensor_id;sensor_type;location;lat;lon;timestamp;temperature;humidity
64843;DHT22;51310;52.198;5.422;2022-12-07T00:01:35;5.10;99.90
64843;DHT22;51310;52.198;5.422;2022-12-07T00:04:04;5.10;99.90
64843;DHT22;51310;52.198;5.422;2022-12-07T00:06:33;5.00;99.90
64843;DHT22;51310;52.198;5.422;2022-12-07T00:09:10;5.00;99.90
64843;DHT22;51310;52.198;5.422;2022-12-07T00:11:39;4.90;99.90
64843;DHT22;51310;52.198;5.422;2022-12-07T00:14:07;4.80;99.90
64843;DHT22;51310;52.198;5.422;2022-12-07T00:16:36;4.80;99.90
64843;DHT22;51310;52.198;5.422;2022-12-07T00:19:04;4.80;99.90
64843;DHT22;51310;52.198;5.422;2022-12-07T00:21:32;4.70;99.90
64843;DHT22;51310;52.198;5.422;2022-12-07T00:24:01;4.70;99.90
64843;DHT22;51310;52.198;5.422;2022-12-07T00:26:34;4.70;99.90
64843;DHT22;51310;52.198;5.422;2022-12-07T00:29:15;4.70;99.90
64843;DHT22;51310;52.198;5.422;2022-12-07T00:31:44;4.80;99.90
64843;DHT22;51310;52.198;5.422;2022-12-07T00:34:17;4.60;99.90
64843;DHT22;51310;52.198;5.422;2022-12-07T00:36:45;4.70;99.90
64843;DHT22;51310;52.198;5.422;2022-12-07T00:39:11;4.70;99.90
64843;DHT22;51310;52.198;5.422;2022-12-07T00:41:37;4.70;99.90
64843;DHT22;51310;52.198;5.422;2022-12-07T00:44:03;4.70;99.90
64843;DHT22;51310;52.198;5.422;2022-12-07T00:46:29;7.00;99.90
64843;DHT22;51310;52.198;5.422;2022-12-07T00:48:55;4.60;99.90
64843;DHT22;51310;52.198;5.422;2022-12-07T00:51:23;4.50;99.90
64843;DHT22;51310;52.198;5.422;2022-12-07T00:53:51;4.60;99.90
64843;DHT22;51310;52.198;5.422;2022-12-07T00:56:20;4.40;99.90
64843;DHT22;51310;52.198;5.422;2022-12-07T00:58:53;4.50;99.90
64843;DHT22;51310;52.198;5.422;2022-12-07T01:01:26;4.60;99.90
64843;DHT22;51310;52.198;5.422;2022-12-07T01:03:56;4.60;99.90
64843;DHT22;51310;52.198;5.422;2022-12-07T01:06:23;4.60;99.90
64843;DHT22;51310;52.198;5.422;2022-12-07T01:08:51;4.60;99.90
64843;DHT22;51310;52.198;5.422;2022-12-07T01:11:20;4.60;99.90
64843;DHT22;51310;52.198;5.422;2022-12-07T01:13:54;4.50;99.90
64843;DHT22;51310;52.198;5.422;2022-12-07T01:16:23;4.60;99.90
64843;DHT22;51310;52.198;5.422;2022-12-07T01:18:53;4.60;99.90
64843;DHT22;51310;52.198;5.422;2022-12-07T01:21:23;4.60;99.90
64843;DHT22;51310;52.198;5.422;2022-12-07T01:23:57;4.60;99.90
64843;DHT22;51310;52.198;5.422;2022-12-07T01:26:24;4.70;99.90
64843;DHT22;51310;52.198;5.422;2022-12-07T01:28:51;4.60;99.90
64843;DHT22;51310;52.198;5.422;2022-12-07T01:31:21;4.60;99.90
64843;DHT22;51310;52.198;5.422;2022-12-07T01:33:52;4.60;99.90
64843;DHT22;51310;52.198;5.422;2022-12-07T01:36:24;4.50;99.90
64843;DHT22;51310;52.198;5.422;2022-12-07T01:38:59;4.50;99.90
64843;DHT22;51310;52.198;5.422;2022-12-07T01:41:33;5.40;99.90
64843;DHT22;51310;52.198;5.422;2022-12-07T01:44:21;4.50;99.90
64843;DHT22;51310;52.198;5.422;2022-12-07T01:47:03;4.50;99.90
64843;DHT22;51310;52.198;5.422;2022-12-07T01:49:38;4.50;99.90
64843;DHT22;51310;52.198;5.422;2022-12-07T01:52:30;4.40;99.90
64843;DHT22;51310;52.198;5.422;2022-12-07T01:55:06;4.40;99.90
64843;DHT22;51310;52.198;5.422;2022-12-07T01:57:39;4.40;99.90
64843;DHT22;51310;52.198;5.422;2022-12-07T02:00:08;4.40;99.90
64843;DHT22;51310;52.198;5.422;2022-12-07T02:02:57;4.40;99.90
64843;DHT22;51310;52.198;5.422;2022-12-07T02:05:29;4.40;99.90
64843;DHT22;51310;52.198;5.422;2022-12-07T02:07:56;4.30;99.90
64843;DHT22;51310;52.198;5.422;2022-12-07T02:10:27;4.30;99.90
64843;DHT22;51310;52.198;5.422;2022-12-07T02:13:21;4.30;99.90
64843;DHT22;51310;52.198;5.422;2022-12-07T02:16:19;4.30;99.90
64843;DHT22;51310;52.198;5.422;2022-12-07T02:19:29;4.40;99.90
64843;DHT22;51310;52.198;5.422;2022-12-07T02:35:39;4.50;99.90
64843;DHT22;51310;52.198;5.422;2022-12-07T02:38:25;4.50;99.90
64843;DHT22;51310;52.198;5.422;2022-12-07T02:41:36;4.60;99.90
64843;DHT22;51310;52.198;5.422;2022-12-07T02:44:11;4.60;99.90
64843;DHT22;51310;52.198;5.422;2022-12-07T02:47:18;4.60;99.90
64843;DHT22;51310;52.198;5.422;2022-12-07T02:49:40;4.50;99.90
64843;DHT22;51310;52.198;5.422;2022-12-07T02:52:06;4.60;99.90
64843;DHT22;51310;52.198;5.422;2022-12-07T02:54:32;4.70;99.90
64843;DHT22;51310;52.198;5.422;2022-12-07T03:02:51;4.70;99.90
64843;DHT22;51310;52.198;5.422;2022-12-07T03:05:27;4.40;99.90
64843;DHT22;51310;52.198;5.422;2022-12-07T03:09:00;4.30;99.90
64843;DHT22;51310;52.198;5.422;2022-12-07T03:12:09;4.30;99.90
64843;DHT22;51310;52.198;5.422;2022-12-07T03:14:45;4.20;99.90
64843;DHT22;51310;52.198;5.422;2022-12-07T03:17:28;4.90;99.90
64843;DHT22;51310;52.198;5.422;2022-12-07T03:20:03;4.10;99.90
64843;DHT22;51310;52.198;5.422;2022-12-07T03:22:34;4.20;99.90
64843;DHT22;51310;52.198;5.422;2022-12-07T03:25:08;4.20;99.90
64843;DHT22;51310;52.198;5.422;2022-12-07T03:27:41;4.40;99.90
64843;DHT22;51310;52.198;5.422;2022-12-07T03:30:24;4.40;99.90
64843;DHT22;51310;52.198;5.422;2022-12-07T03:33:20;4.50;99.90
64843;DHT22;51310;52.198;5.422;2022-12-07T03:36:02;4.50;99.90
64843;DHT22;51310;52.198;5.422;2022-12-07T03:38:42;4.40;99.90
64843;DHT22;51310;52.198;5.422;2022-12-07T03:41:35;4.30;99.90
64843;DHT22;51310;52.198;5.422;2022-12-07T03:44:04;4.10;99.90
64843;DHT22;51310;52.198;5.422;2022-12-07T03:46:50;4.30;99.90
64843;DHT22;51310;52.198;5.422;2022-12-07T03:55:20;4.30;99.90
64843;DHT22;51310;52.198;5.422;2022-12-07T03:57:56;4.30;99.90
64843;DHT22;51310;52.198;5.422;2022-12-07T04:00:30;4.40;99.90
64843;DHT22;51310;52.198;5.422;2022-12-07T04:02:56;4.30;99.90
64843;DHT22;51310;52.198;5.422;2022-12-07T04:05:22;4.40;99.90
64843;DHT22;51310;52.198;5.422;2022-12-07T04:07:49;4.50;99.90
64843;DHT22;51310;52.198;5.422;2022-12-07T04:10:15;4.50;99.90
64843;DHT22;51310;52.198;5.422;2022-12-07T04:12:41;4.30;99.90
64843;DHT22;51310;52.198;5.422;2022-12-07T04:15:07;4.30;99.90
64843;DHT22;51310;52.198;5.422;2022-12-07T04:17:34;4.20;99.90
64843;DHT22;51310;52.198;5.422;2022-12-07T04:20:00;4.10;99.90
64843;DHT22;51310;52.198;5.422;2022-12-07T04:22:27;4.00;99.90
64843;DHT22;51310;52.198;5.422;2022-12-07T04:24:53;3.90;99.90
64843;DHT22;51310;52.198;5.422;2022-12-07T04:27:19;3.90;99.90
64843;DHT22;51310;52.198;5.422;2022-12-07T04:29:45;4.00;99.90
64843;DHT22;51310;52.198;5.422;2022-12-07T04:32:11;3.80;99.90
64843;DHT22;51310;52.198;5.422;2022-12-07T04:34:36;3.60;99.90
64843;DHT22;51310;52.198;5.422;2022-12-07T04:37:02;3.60;99.90
64843;DHT22;51310;52.198;5.422;2022-12-07T04:39:30;3.60;99.90
64843;DHT22;51310;52.198;5.422;2022-12-07T04:41:58;3.70;99.90
64843;DHT22;51310;52.198;5.422;2022-12-07T04:44:27;3.80;99.90
64843;DHT22;51310;52.198;5.422;2022-12-07T04:46:54;3.90;99.90
64843;DHT22;51310;52.198;5.422;2022-12-07T04:49:23;3.80;99.90
64843;DHT22;51310;52.198;5.422;2022-12-07T04:51:49;3.80;99.90
64843;DHT22;51310;52.198;5.422;2022-12-07T04:54:16;4.00;99.90
64843;DHT22;51310;52.198;5.422;2022-12-07T04:56:43;3.90;99.90
64843;DHT22;51310;52.198;5.422;2022-12-07T04:59:10;3.90;99.90
64843;DHT22;51310;52.198;5.422;2022-12-07T05:01:37;3.90;99.90
64843;DHT22;51310;52.198;5.422;2022-12-07T05:04:04;3.90;99.90
64843;DHT22;51310;52.198;5.422;2022-12-07T05:06:30;3.80;99.90
64843;DHT22;51310;52.198;5.422;2022-12-07T05:08:56;3.80;99.90
64843;DHT22;51310;52.198;5.422;2022-12-07T05:11:22;5.00;99.90
64843;DHT22;51310;52.198;5.422;2022-12-07T05:14:12;3.80;99.90
64843;DHT22;51310;52.198;5.422;2022-12-07T05:16:48;3.90;99.90
64843;DHT22;51310;52.198;5.422;2022-12-07T05:19:16;4.00;99.90
64843;DHT22;51310;52.198;5.422;2022-12-07T05:21:43;3.90;99.90
64843;DHT22;51310;52.198;5.422;2022-12-07T05:24:11;4.00;99.90
64843;DHT22;51310;52.198;5.422;2022-12-07T05:26:39;4.00;99.90
64843;DHT22;51310;52.198;5.422;2022-12-07T05:29:05;4.10;99.90
64843;DHT22;51310;52.198;5.422;2022-12-07T05:31:32;4.10;99.90
64843;DHT22;51310;52.198;5.422;2022-12-07T05:34:01;4.20;99.90
64843;DHT22;51310;52.198;5.422;2022-12-07T05:36:27;4.00;99.90
64843;DHT22;51310;52.198;5.422;2022-12-07T05:38:54;4.10;99.90
64843;DHT22;51310;52.198;5.422;2022-12-07T05:41:19;4.10;99.90
64843;DHT22;51310;52.198;5.422;2022-12-07T05:44:04;4.20;99.90
64843;DHT22;51310;52.198;5.422;2022-12-07T05:46:31;4.20;99.90
64843;DHT22;51310;52.198;5.422;2022-12-07T05:48:57;4.20;99.90
64843;DHT22;51310;52.198;5.422;2022-12-07T05:51:23;4.20;99.90
64843;DHT22;51310;52.198;5.422;2022-12-07T05:53:49;4.20;99.90
64843;DHT22;51310;52.198;5.422;2022-12-07T05:56:15;4.10;99.90
64843;DHT22;51310;52.198;5.422;2022-12-07T05:58:41;4.10;99.90
64843;DHT22;51310;52.198;5.422;2022-12-07T06:01:25;4.10;99.90
64843;DHT22;51310;52.198;5.422;2022-12-07T06:03:51;4.10;99.90
64843;DHT22;51310;52.198;5.422;2022-12-07T06:06:17;4.10;99.90
64843;DHT22;51310;52.198;5.422;2022-12-07T06:08:43;4.00;99.90
64843;DHT22;51310;52.198;5.422;2022-12-07T06:11:09;4.00;99.90
64843;DHT22;51310;52.198;5.422;2022-12-07T06:14:01;4.10;99.90
64843;DHT22;51310;52.198;5.422;2022-12-07T06:16:27;4.20;99.90
64843;DHT22;51310;52.198;5.422;2022-12-07T06:18:52;4.20;99.90
64843;DHT22;51310;52.198;5.422;2022-12-07T06:21:19;4.30;99.90
64843;DHT22;51310;52.198;5.422;2022-12-07T06:23:44;4.20;99.90
64843;DHT22;51310;52.198;5.422;2022-12-07T06:26:10;4.20;99.90
64843;DHT22;51310;52.198;5.422;2022-12-07T06:28:36;4.50;99.90
64843;DHT22;51310;52.198;5.422;2022-12-07T06:31:02;4.30;99.90
64843;DHT22;51310;52.198;5.422;2022-12-07T06:33:28;4.40;99.90
64843;DHT22;51310;52.198;5.422;2022-12-07T06:35:54;4.40;99.90
64843;DHT22;51310;52.198;5.422;2022-12-07T06:38:20;4.50;99.90
64843;DHT22;51310;52.198;5.422;2022-12-07T06:40:46;4.50;99.90
64843;DHT22;51310;52.198;5.422;2022-12-07T06:43:13;5.30;99.90
64843;DHT22;51310;52.198;5.422;2022-12-07T06:45:40;4.20;99.90
64843;DHT22;51310;52.198;5.422;2022-12-07T06:48:06;4.10;99.90
64843;DHT22;51310;52.198;5.422;2022-12-07T06:50:32;4.10;99.90
64843;DHT22;51310;52.198;5.422;2022-12-07T06:52:58;3.90;99.90
64843;DHT22;51310;52.198;5.422;2022-12-07T06:55:24;6.40;99.90
64843;DHT22;51310;52.198;5.422;2022-12-07T06:57:50;3.80;99.90
64843;DHT22;51310;52.198;5.422;2022-12-07T07:00:16;3.60;99.90
64843;DHT22;51310;52.198;5.422;2022-12-07T07:02:42;3.50;99.90
64843;DHT22;51310;52.198;5.422;2022-12-07T07:05:08;3.60;99.90
64843;DHT22;51310;52.198;5.422;2022-12-07T07:07:34;3.50;99.90
64843;DHT22;51310;52.198;5.422;2022-12-07T07:10:00;3.40;99.90
64843;DHT22;51310;52.198;5.422;2022-12-07T07:12:26;3.30;99.90
64843;DHT22;51310;52.198;5.422;2022-12-07T07:14:52;3.30;99.90
64843;DHT22;51310;52.198;5.422;2022-12-07T07:17:18;3.40;99.90
64843;DHT22;51310;52.198;5.422;2022-12-07T07:19:43;3.50;99.90
64843;DHT22;51310;52.198;5.422;2022-12-07T07:22:09;3.50;99.90
64843;DHT22;51310;52.198;5.422;2022-12-07T07:24:35;3.40;99.90
64843;DHT22;51310;52.198;5.422;2022-12-07T07:27:01;3.20;99.90
64843;DHT22;51310;52.198;5.422;2022-12-07T07:29:27;3.00;99.90
64843;DHT22;51310;52.198;5.422;2022-12-07T07:31:53;3.00;99.90
64843;DHT22;51310;52.198;5.422;2022-12-07T07:34:19;3.00;99.90
64843;DHT22;51310;52.198;5.422;2022-12-07T07:36:44;3.10;99.90
64843;DHT22;51310;52.198;5.422;2022-12-07T07:39:10;3.10;99.90
64843;DHT22;51310;52.198;5.422;2022-12-07T07:41:38;3.10;99.90
64843;DHT22;51310;52.198;5.422;2022-12-07T07:44:04;3.30;99.90
64843;DHT22;51310;52.198;5.422;2022-12-07T07:46:30;3.20;99.90
64843;DHT22;51310;52.198;5.422;2022-12-07T07:48:58;3.10;99.90
64843;DHT22;51310;52.198;5.422;2022-12-07T07:51:24;3.10;99.90
64843;DHT22;51310;52.198;5.422;2022-12-07T07:53:50;3.40;99.90
64843;DHT22;51310;52.198;5.422;2022-12-07T07:56:16;3.50;99.90
64843;DHT22;51310;52.198;5.422;2022-12-07T07:58:42;3.40;99.90
64843;DHT22;51310;52.198;5.422;2022-12-07T08:01:08;3.60;99.90
64843;DHT22;51310;52.198;5.422;2022-12-07T08:03:34;3.80;99.90
64843;DHT22;51310;52.198;5.422;2022-12-07T08:06:04;3.90;99.90
64843;DHT22;51310;52.198;5.422;2022-12-07T08:08:31;3.90;99.90
64843;DHT22;51310;52.198;5.422;2022-12-07T08:10:57;3.80;99.90
64843;DHT22;51310;52.198;5.422;2022-12-07T08:13:26;3.80;99.90
64843;DHT22;51310;52.198;5.422;2022-12-07T08:15:53;4.00;99.90
64843;DHT22;51310;52.198;5.422;2022-12-07T08:18:19;4.10;99.90
64843;DHT22;51310;52.198;5.422;2022-12-07T08:20:45;4.20;99.90
64843;DHT22;51310;52.198;5.422;2022-12-07T08:23:10;4.20;99.90
64843;DHT22;51310;52.198;5.422;2022-12-07T08:25:37;4.00;99.90
64843;DHT22;51310;52.198;5.422;2022-12-07T08:28:03;4.00;99.90
64843;DHT22;51310;52.198;5.422;2022-12-07T08:30:30;4.00;99.90
64843;DHT22;51310;52.198;5.422;2022-12-07T08:32:57;4.10;99.90
64843;DHT22;51310;52.198;5.422;2022-12-07T08:35:23;4.10;99.90
64843;DHT22;51310;52.198;5.422;2022-12-07T08:37:49;4.30;99.90
64843;DHT22;51310;52.198;5.422;2022-12-07T08:40:15;4.40;99.90
64843;DHT22;51310;52.198;5.422;2022-12-07T08:42:48;4.50;99.90
64843;DHT22;51310;52.198;5.422;2022-12-07T08:45:16;4.70;99.90
64843;DHT22;51310;52.198;5.422;2022-12-07T08:47:57;4.70;99.90
64843;DHT22;51310;52.198;5.422;2022-12-07T08:50:32;4.70;99.90
64843;DHT22;51310;52.198;5.422;2022-12-07T08:53:00;4.70;99.90
64843;DHT22;51310;52.198;5.422;2022-12-07T08:55:27;4.70;99.90
64843;DHT22;51310;52.198;5.422;2022-12-07T08:57:54;4.70;99.90
64843;DHT22;51310;52.198;5.422;2022-12-07T09:00:23;4.80;99.90
64843;DHT22;51310;52.198;5.422;2022-12-07T09:02:49;4.80;99.90
64843;DHT22;51310;52.198;5.422;2022-12-07T09:05:15;4.70;99.90
64843;DHT22;51310;52.198;5.422;2022-12-07T09:07:45;4.80;99.90
64843;DHT22;51310;52.198;5.422;2022-12-07T09:10:13;4.70;99.90
64843;DHT22;51310;52.198;5.422;2022-12-07T09:12:40;4.70;99.90
64843;DHT22;51310;52.198;5.422;2022-12-07T09:15:06;4.60;99.90
64843;DHT22;51310;52.198;5.422;2022-12-07T09:17:33;4.60;99.90
64843;DHT22;51310;52.198;5.422;2022-12-07T09:20:01;4.60;99.90
64843;DHT22;51310;52.198;5.422;2022-12-07T09:22:30;4.80;99.90
64843;DHT22;51310;52.198;5.422;2022-12-07T09:24:58;4.80;99.90
64843;DHT22;51310;52.198;5.422;2022-12-07T09:27:24;4.90;99.90
64843;DHT22;51310;52.198;5.422;2022-12-07T09:29:51;4.90;99.90
64843;DHT22;51310;52.198;5.422;2022-12-07T09:32:16;4.90;99.90
64843;DHT22;51310;52.198;5.422;2022-12-07T09:34:42;5.00;99.90
64843;DHT22;51310;52.198;5.422;2022-12-07T09:37:08;4.90;99.90
64843;DHT22;51310;52.198;5.422;2022-12-07T09:39:37;4.90;99.90
64843;DHT22;51310;52.198;5.422;2022-12-07T09:42:04;4.40;99.90
64843;DHT22;51310;52.198;5.422;2022-12-07T09:44:33;5.20;99.90
64843;DHT22;51310;52.198;5.422;2022-12-07T09:47:00;5.20;99.90
64843;DHT22;51310;52.198;5.422;2022-12-07T09:49:29;5.20;99.90
64843;DHT22;51310;52.198;5.422;2022-12-07T09:52:27;5.30;99.90
64843;DHT22;51310;52.198;5.422;2022-12-07T09:54:54;5.10;99.90
64843;DHT22;51310;52.198;5.422;2022-12-07T09:57:27;5.10;99.90
64843;DHT22;51310;52.198;5.422;2022-12-07T10:00:01;5.20;99.90
64843;DHT22;51310;52.198;5.422;2022-12-07T10:02:41;5.00;99.90
64843;DHT22;51310;52.198;5.422;2022-12-07T10:05:14;4.90;99.90
64843;DHT22;51310;52.198;5.422;2022-12-07T10:07:46;5.00;99.90
64843;DHT22;51310;52.198;5.422;2022-12-07T10:10:19;5.10;99.90
64843;DHT22;51310;52.198;5.422;2022-12-07T10:13:13;5.20;99.90
64843;DHT22;51310;52.198;5.422;2022-12-07T10:15:54;5.30;99.90
64843;DHT22;51310;52.198;5.422;2022-12-07T10:18:32;5.60;99.90
64843;DHT22;51310;52.198;5.422;2022-12-07T10:21:11;5.70;99.90
64843;DHT22;51310;52.198;5.422;2022-12-07T10:29:14;5.50;99.90
64843;DHT22;51310;52.198;5.422;2022-12-07T10:31:43;5.50;99.90
64843;DHT22;51310;52.198;5.422;2022-12-07T10:34:29;5.50;99.90
64843;DHT22;51310;52.198;5.422;2022-12-07T10:39:43;5.50;99.90
64843;DHT22;51310;52.198;5.422;2022-12-07T10:45:14;5.60;99.90
64843;DHT22;51310;52.198;5.422;2022-12-07T10:48:06;5.70;99.90
64843;DHT22;51310;52.198;5.422;2022-12-07T10:57:23;5.80;99.90
64843;DHT22;51310;52.198;5.422;2022-12-07T11:00:25;5.90;99.90
64843;DHT22;51310;52.198;5.422;2022-12-07T11:04:03;6.00;99.90
64843;DHT22;51310;52.198;5.422;2022-12-07T11:06:45;6.10;99.90
64843;DHT22;51310;52.198;5.422;2022-12-07T11:14:56;6.10;99.90
64843;DHT22;51310;52.198;5.422;2022-12-07T11:21:06;6.20;99.90
64843;DHT22;51310;52.198;5.422;2022-12-07T11:24:15;6.20;99.90
64843;DHT22;51310;52.198;5.422;2022-12-07T11:33:26;6.10;99.90
64843;DHT22;51310;52.198;5.422;2022-12-07T11:38:51;6.40;99.90
64843;DHT22;51310;52.198;5.422;2022-12-07T11:41:33;6.50;99.90
64843;DHT22;51310;52.198;5.422;2022-12-07T11:47:40;6.70;99.90
64843;DHT22;51310;52.198;5.422;2022-12-07T11:50:30;6.80;99.80
64843;DHT22;51310;52.198;5.422;2022-12-07T11:56:00;6.70;99.90
64843;DHT22;51310;52.198;5.422;2022-12-07T12:04:30;6.80;97.90
64843;DHT22;51310;52.198;5.422;2022-12-07T12:07:23;6.90;97.40
64843;DHT22;51310;52.198;5.422;2022-12-07T12:13:27;6.90;94.60
64843;DHT22;51310;52.198;5.422;2022-12-07T12:19:40;6.80;91.40
64843;DHT22;51310;52.198;5.422;2022-12-07T12:22:33;6.90;94.40
64843;DHT22;51310;52.198;5.422;2022-12-07T12:25:16;7.00;94.50
64843;DHT22;51310;52.198;5.422;2022-12-07T12:28:31;7.00;94.10
64843;DHT22;51310;52.198;5.422;2022-12-07T12:33:48;6.90;96.50
64843;DHT22;51310;52.198;5.422;2022-12-07T12:46:59;7.20;94.30
64843;DHT22;51310;52.198;5.422;2022-12-07T12:49:41;7.30;94.40
64843;DHT22;51310;52.198;5.422;2022-12-07T12:57:35;6.80;98.60
64843;DHT22;51310;52.198;5.422;2022-12-07T13:00:22;6.50;99.90
64843;DHT22;51310;52.198;5.422;2022-12-07T13:02:54;5.60;99.90
64843;DHT22;51310;52.198;5.422;2022-12-07T13:05:24;5.10;99.90
64843;DHT22;51310;52.198;5.422;2022-12-07T13:07:54;4.90;99.90
64843;DHT22;51310;52.198;5.422;2022-12-07T13:31:47;4.90;99.90
64843;DHT22;51310;52.198;5.422;2022-12-07T13:34:38;5.00;99.90
64843;DHT22;51310;52.198;5.422;2022-12-07T13:37:21;5.10;99.90
64843;DHT22;51310;52.198;5.422;2022-12-07T13:39:59;5.30;99.90
64843;DHT22;51310;52.198;5.422;2022-12-07T13:42:43;5.40;99.90
64843;DHT22;51310;52.198;5.422;2022-12-07T13:45:25;5.50;99.90
64843;DHT22;51310;52.198;5.422;2022-12-07T13:51:23;5.50;99.90
64843;DHT22;51310;52.198;5.422;2022-12-07T13:53:59;5.60;99.90
64843;DHT22;51310;52.198;5.422;2022-12-07T13:56:35;5.60;99.90
64843;DHT22;51310;52.198;5.422;2022-12-07T13:59:02;5.80;99.90
64843;DHT22;51310;52.198;5.422;2022-12-07T14:01:42;5.70;99.90
64843;DHT22;51310;52.198;5.422;2022-12-07T14:04:17;5.80;99.90
64843;DHT22;51310;52.198;5.422;2022-12-07T14:07:27;5.70;99.90
64843;DHT22;51310;52.198;5.422;2022-12-07T14:10:05;5.80;99.90
64843;DHT22;51310;52.198;5.422;2022-12-07T14:12:36;5.80;99.90
64843;DHT22;51310;52.198;5.422;2022-12-07T14:15:03;5.80;99.90
64843;DHT22;51310;52.198;5.422;2022-12-07T14:17:29;5.80;99.90
64843;DHT22;51310;52.198;5.422;2022-12-07T14:19:59;5.80;99.90
64843;DHT22;51310;52.198;5.422;2022-12-07T14:22:32;5.90;99.90
64843;DHT22;51310;52.198;5.422;2022-12-07T14:30:22;5.90;99.90
64843;DHT22;51310;52.198;5.422;2022-12-07T14:33:00;5.80;99.90
64843;DHT22;51310;52.198;5.422;2022-12-07T14:35:30;5.90;99.90
64843;DHT22;51310;52.198;5.422;2022-12-07T14:37:57;6.00;99.90
64843;DHT22;51310;52.198;5.422;2022-12-07T14:40:26;5.80;99.90
64843;DHT22;51310;52.198;5.422;2022-12-07T14:43:01;5.70;99.90
64843;DHT22;51310;52.198;5.422;2022-12-07T14:45:30;5.60;99.90
64843;DHT22;51310;52.198;5.422;2022-12-07T14:47:56;5.70;99.90
64843;DHT22;51310;52.198;5.422;2022-12-07T14:50:23;5.60;99.90
64843;DHT22;51310;52.198;5.422;2022-12-07T14:52:59;5.60;99.90
64843;DHT22;51310;52.198;5.422;2022-12-07T14:55:31;5.60;99.90
64843;DHT22;51310;52.198;5.422;2022-12-07T14:57:57;5.80;99.90
64843;DHT22;51310;52.198;5.422;2022-12-07T15:00:26;6.00;99.90
64843;DHT22;51310;52.198;5.422;2022-12-07T15:02:53;6.10;99.90
64843;DHT22;51310;52.198;5.422;2022-12-07T15:05:20;6.00;99.90
64843;DHT22;51310;52.198;5.422;2022-12-07T15:07:46;6.00;99.90
64843;DHT22;51310;52.198;5.422;2022-12-07T15:12:43;5.60;99.90
64843;DHT22;51310;52.198;5.422;2022-12-07T15:15:10;5.60;99.90
64843;DHT22;51310;52.198;5.422;2022-12-07T15:17:35;5.40;99.90
64843;DHT22;51310;52.198;5.422;2022-12-07T15:20:02;5.30;99.90
64843;DHT22;51310;52.198;5.422;2022-12-07T15:22:29;5.20;99.90
64843;DHT22;51310;52.198;5.422;2022-12-07T15:24:56;5.20;99.90
64843;DHT22;51310;52.198;5.422;2022-12-07T15:27:23;5.10;99.90
64843;DHT22;51310;52.198;5.422;2022-12-07T15:29:49;5.10;99.90
64843;DHT22;51310;52.198;5.422;2022-12-07T15:32:15;5.00;99.90
64843;DHT22;51310;52.198;5.422;2022-12-07T15:34:40;4.90;99.90
64843;DHT22;51310;52.198;5.422;2022-12-07T15:37:07;4.80;99.90
64843;DHT22;51310;52.198;5.422;2022-12-07T15:39:35;4.90;99.90
64843;DHT22;51310;52.198;5.422;2022-12-07T15:42:01;5.00;99.90
64843;DHT22;51310;52.198;5.422;2022-12-07T15:44:28;5.00;99.90
64843;DHT22;51310;52.198;5.422;2022-12-07T15:47:12;5.00;99.90
64843;DHT22;51310;52.198;5.422;2022-12-07T15:49:38;4.90;99.90
64843;DHT22;51310;52.198;5.422;2022-12-07T15:52:04;4.90;99.90
64843;DHT22;51310;52.198;5.422;2022-12-07T15:54:30;4.80;99.90
64843;DHT22;51310;52.198;5.422;2022-12-07T15:56:57;4.90;99.90
64843;DHT22;51310;52.198;5.422;2022-12-07T15:59:23;4.70;99.90
64843;DHT22;51310;52.198;5.422;2022-12-07T16:01:51;5.00;99.90
64843;DHT22;51310;52.198;5.422;2022-12-07T16:04:17;4.80;99.90
64843;DHT22;51310;52.198;5.422;2022-12-07T16:06:43;4.90;99.90
64843;DHT22;51310;52.198;5.422;2022-12-07T16:09:09;4.80;99.90
64843;DHT22;51310;52.198;5.422;2022-12-07T16:11:35;4.80;99.90
64843;DHT22;51310;52.198;5.422;2022-12-07T16:14:02;5.00;99.90
64843;DHT22;51310;52.198;5.422;2022-12-07T16:16:28;5.10;99.90
64843;DHT22;51310;52.198;5.422;2022-12-07T16:18:54;4.90;99.90
64843;DHT22;51310;52.198;5.422;2022-12-07T16:21:21;4.80;99.90
64843;DHT22;51310;52.198;5.422;2022-12-07T16:23:47;4.70;99.90
64843;DHT22;51310;52.198;5.422;2022-12-07T16:26:15;4.80;99.90
64843;DHT22;51310;52.198;5.422;2022-12-07T16:28:43;4.90;99.90
64843;DHT22;51310;52.198;5.422;2022-12-07T16:31:13;4.90;99.90
64843;DHT22;51310;52.198;5.422;2022-12-07T16:33:43;4.80;99.90
64843;DHT22;51310;52.198;5.422;2022-12-07T16:36:11;4.80;99.90
64843;DHT22;51310;52.198;5.422;2022-12-07T16:38:41;4.80;99.90
64843;DHT22;51310;52.198;5.422;2022-12-07T16:41:09;4.70;99.90
64843;DHT22;51310;52.198;5.422;2022-12-07T16:43:36;4.90;99.90
64843;DHT22;51310;52.198;5.422;2022-12-07T16:46:03;4.80;99.90
64843;DHT22;51310;52.198;5.422;2022-12-07T16:48:29;6.10;99.90
64843;DHT22;51310;52.198;5.422;2022-12-07T16:50:55;4.70;99.90
64843;DHT22;51310;52.198;5.422;2022-12-07T16:53:23;4.80;99.90
64843;DHT22;51310;52.198;5.422;2022-12-07T16:55:50;4.60;99.90
64843;DHT22;51310;52.198;5.422;2022-12-07T16:58:17;4.70;99.90
64843;DHT22;51310;52.198;5.422;2022-12-07T17:00:44;4.60;99.90
64843;DHT22;51310;52.198;5.422;2022-12-07T17:03:11;4.70;99.90
64843;DHT22;51310;52.198;5.422;2022-12-07T17:05:38;4.60;99.90
64843;DHT22;51310;52.198;5.422;2022-12-07T17:08:06;4.70;99.90
64843;DHT22;51310;52.198;5.422;2022-12-07T17:10:35;4.80;99.90
64843;DHT22;51310;52.198;5.422;2022-12-07T17:13:04;4.90;99.90
64843;DHT22;51310;52.198;5.422;2022-12-07T17:16:04;4.90;99.90
64843;DHT22;51310;52.198;5.422;2022-12-07T17:18:33;4.90;99.90
64843;DHT22;51310;52.198;5.422;2022-12-07T17:21:06;4.80;99.90
64843;DHT22;51310;52.198;5.422;2022-12-07T17:23:35;4.70;99.90
64843;DHT22;51310;52.198;5.422;2022-12-07T17:26:14;4.70;99.90
64843;DHT22;51310;52.198;5.422;2022-12-07T17:28:44;4.80;99.90
64843;DHT22;51310;52.198;5.422;2022-12-07T17:31:12;5.00;99.90
64843;DHT22;51310;52.198;5.422;2022-12-07T17:33:42;4.90;99.90
64843;DHT22;51310;52.198;5.422;2022-12-07T17:36:14;5.00;99.90
64843;DHT22;51310;52.198;5.422;2022-12-07T17:38:52;5.00;99.90
64843;DHT22;51310;52.198;5.422;2022-12-07T17:41:24;5.00;99.90
64843;DHT22;51310;52.198;5.422;2022-12-07T17:44:17;5.00;99.90
64843;DHT22;51310;52.198;5.422;2022-12-07T17:46:47;5.00;99.90
64843;DHT22;51310;52.198;5.422;2022-12-07T17:49:15;4.90;99.90
64843;DHT22;51310;52.198;5.422;2022-12-07T17:51:41;4.90;99.90
64843;DHT22;51310;52.198;5.422;2022-12-07T17:54:26;7.00;99.90
64843;DHT22;51310;52.198;5.422;2022-12-07T17:56:52;4.70;99.90
64843;DHT22;51310;52.198;5.422;2022-12-07T17:59:18;4.70;99.90
64843;DHT22;51310;52.198;5.422;2022-12-07T18:01:44;4.70;99.90
64843;DHT22;51310;52.198;5.422;2022-12-07T18:04:11;4.70;99.90
64843;DHT22;51310;52.198;5.422;2022-12-07T18:06:37;4.80;99.90
64843;DHT22;51310;52.198;5.422;2022-12-07T18:09:03;4.90;99.90
64843;DHT22;51310;52.198;5.422;2022-12-07T18:11:30;4.80;99.90
64843;DHT22;51310;52.198;5.422;2022-12-07T18:13:57;4.70;99.90
64843;DHT22;51310;52.198;5.422;2022-12-07T18:16:26;4.80;99.90
64843;DHT22;51310;52.198;5.422;2022-12-07T18:18:57;4.70;99.90
64843;DHT22;51310;52.198;5.422;2022-12-07T18:21:27;4.60;99.90
64843;DHT22;51310;52.198;5.422;2022-12-07T18:23:57;4.60;99.90
64843;DHT22;51310;52.198;5.422;2022-12-07T18:26:30;4.50;99.90